createdAt,value
2018-09-10T00:00:32.442Z,79.79
2018-09-10T00:01:31.857Z,80.36
2018-09-10T00:02:33.577Z,80.65
2018-09-10T00:03:31.807Z,80.46
2018-09-10T00:04:33.514Z,80.36
2018-09-10T00:05:31.722Z,80.27
2018-09-10T00:06:32.299Z,80.65
2018-09-10T00:07:31.698Z,80.94
2018-09-10T00:08:31.645Z,80.94
2018-09-10T00:10:31.646Z,81.23
2018-09-10T00:11:31.683Z,81.13
2018-09-10T00:12:32.523Z,81.23
2018-09-10T00:13:32.380Z,81.71
2018-09-10T00:14:34.469Z,82.09
2018-09-10T00:15:31.661Z,81.71
2018-09-10T00:16:31.644Z,82.09
2018-09-10T00:17:31.801Z,82.24
2018-09-10T00:18:31.701Z,82.34
2018-09-10T00:19:31.520Z,82.09
2018-09-10T00:20:33.398Z,82.67
2018-09-10T00:21:36.570Z,82.57
2018-09-10T00:22:41.625Z,82.43
2018-09-10T00:24:38.230Z,81.38
2018-09-10T00:25:29.804Z,81.86
2018-09-10T00:26:29.791Z,81.67
2018-09-10T00:27:30.666Z,80.99
2018-09-10T00:28:29.758Z,81.28
2018-09-10T00:29:31.534Z,80.90
2018-09-10T00:31:34.610Z,81.23
2018-09-10T00:32:30.757Z,81.28
2018-09-10T00:33:32.695Z,81.42
2018-09-10T00:34:30.543Z,81.09
2018-09-10T00:35:40.701Z,80.99
2018-09-10T00:36:29.721Z,80.75
2018-09-10T00:37:36.697Z,80.71
2018-09-10T00:40:04.029Z,81.19
2018-09-10T00:41:00.506Z,81.19
2018-09-10T00:43:00.508Z,81.76
2018-09-10T00:44:15.334Z,82.05
2018-09-10T00:45:01.903Z,81.96
2018-09-10T00:47:00.445Z,81.48
2018-09-10T00:48:00.488Z,81.76
2018-09-10T00:49:11.877Z,81.48
2018-09-10T00:50:00.555Z,81.86
2018-09-10T00:51:00.392Z,81.96
2018-09-10T00:52:01.425Z,81.96
2018-09-10T00:53:00.506Z,81.76
2018-09-10T00:55:43.420Z,81.86
2018-09-10T00:56:21.798Z,81.57
2018-09-10T00:57:23.454Z,81.86
2018-09-10T00:58:24.452Z,81.72
2018-09-10T00:59:22.423Z,81.38
2018-09-10T01:00:21.712Z,81.67
2018-09-10T01:01:55.643Z,81.67
2018-09-10T01:03:17.231Z,81.63
2018-09-10T01:04:18.750Z,82.01
2018-09-10T01:05:21.696Z,81.72
2018-09-10T01:06:18.717Z,81.72
2018-09-10T01:08:52.264Z,81.72
2018-09-10T01:09:52.115Z,82.01
2018-09-10T01:13:20.348Z,81.72
2018-09-10T01:14:22.897Z,81.76
2018-09-10T01:15:20.934Z,80.96
2018-09-10T01:16:20.304Z,81.09
2018-09-10T01:17:20.337Z,81.09
2018-09-10T01:18:20.343Z,81.19
2018-09-10T01:19:47.875Z,81.76
2018-09-10T01:20:20.366Z,81.86
2018-09-10T01:22:22.840Z,81.86
2018-09-10T01:23:22.856Z,82.63
2018-09-10T01:24:20.688Z,82.63
2018-09-10T01:25:41.252Z,82.92
2018-09-10T01:26:20.230Z,82.34
2018-09-10T01:27:20.804Z,83.26
2018-09-10T01:28:20.045Z,83.11
2018-09-10T01:29:20.938Z,83.11
2018-09-10T01:30:20.022Z,83.26
2018-09-10T01:31:20.125Z,82.68
2018-09-10T01:33:21.975Z,82.68
2018-09-10T01:34:24.883Z,82.97
2018-09-10T01:35:24.812Z,82.73
2018-09-10T01:36:20.879Z,82.68
2018-09-10T01:37:20.126Z,82.43
2018-09-10T01:38:21.768Z,81.96
2018-09-10T01:39:20.872Z,82.15
2018-09-10T01:40:30.829Z,81.76
2018-09-10T01:41:19.972Z,81.76
2018-09-10T01:42:19.991Z,81.57
2018-09-10T01:43:20.007Z,81.76
2018-09-10T01:44:20.911Z,81.76
2018-09-10T01:45:21.896Z,81.67
2018-09-10T01:46:20.507Z,81.48
2018-09-10T01:47:20.049Z,81.38
2018-09-10T01:48:19.864Z,81.28
2018-09-10T01:49:20.847Z,81.48
2018-09-10T01:50:20.718Z,81.38
2018-09-10T01:51:22.883Z,81.57
2018-09-10T01:52:42.928Z,81.48
2018-09-10T01:53:30.808Z,81.57
2018-09-10T01:54:20.975Z,81.76
2018-09-10T01:55:20.958Z,81.76
2018-09-10T01:56:19.902Z,81.76
2018-09-10T01:57:24.369Z,81.57
2018-09-10T01:58:20.470Z,81.57
2018-09-10T01:59:19.883Z,81.67
2018-09-10T02:00:19.908Z,82.15
2018-09-10T02:01:19.823Z,82.24
2018-09-10T02:02:19.780Z,82.24
2018-09-10T02:04:21.313Z,81.67
2018-09-10T02:05:21.429Z,81.57
2018-09-10T02:06:19.717Z,82.24
2018-09-10T02:07:19.743Z,81.76
2018-09-10T02:08:20.432Z,81.96
2018-09-10T02:09:19.831Z,82.05
2018-09-10T02:10:24.334Z,81.96
2018-09-10T02:11:21.404Z,82.05
2018-09-10T02:12:22.417Z,82.05
2018-09-10T02:13:19.772Z,82.24
2018-09-10T02:14:26.392Z,82.05
2018-09-10T02:15:20.238Z,81.57
2018-09-10T02:16:19.640Z,81.67
2018-09-10T02:17:21.347Z,81.57
2018-09-10T02:18:19.765Z,81.57
2018-09-10T02:19:19.747Z,81.76
2018-09-10T02:20:22.419Z,81.57
2018-09-10T02:21:19.656Z,81.76
2018-09-10T02:22:19.710Z,81.76
2018-09-10T02:23:22.396Z,81.76
2018-09-10T02:24:19.414Z,81.76
2018-09-10T02:25:19.589Z,81.76
2018-09-10T02:26:43.470Z,81.67
2018-09-10T02:27:22.918Z,81.76
2018-09-10T02:28:19.542Z,81.48
2018-09-10T02:29:19.598Z,81.76
2018-09-10T02:30:21.494Z,81.48
2018-09-10T02:31:26.401Z,81.57
2018-09-10T02:32:19.646Z,81.67
2018-09-10T02:33:19.410Z,81.86
2018-09-10T02:34:41.482Z,81.67
2018-09-10T02:35:22.418Z,81.90
2018-09-10T02:36:22.508Z,81.48
2018-09-10T02:37:26.399Z,81.38
2018-09-10T02:38:19.500Z,81.38
2018-09-10T02:39:21.397Z,81.38
2018-09-10T02:41:21.419Z,80.99
2018-09-10T02:42:21.873Z,81.09
2018-09-10T02:43:26.449Z,80.99
2018-09-10T02:44:40.400Z,81.28
2018-09-10T02:45:20.305Z,81.19
2018-09-10T02:46:19.426Z,81.28
2018-09-10T02:47:19.429Z,81.28
2018-09-10T02:48:19.480Z,81.19
2018-09-10T02:51:15.293Z,81.09
2018-09-10T02:52:16.137Z,81.09
2018-09-10T02:54:12.780Z,81.09
2018-09-10T02:55:11.736Z,81.09
2018-09-10T02:56:11.677Z,81.19
2018-09-10T02:57:16.066Z,81.09
2018-09-10T02:58:16.214Z,81.28
2018-09-10T02:59:11.800Z,81.48
2018-09-10T03:00:14.208Z,81.19
2018-09-10T03:01:14.336Z,81.28
2018-09-10T03:02:14.406Z,81.28
2018-09-10T03:04:11.693Z,81.19
2018-09-10T03:05:11.688Z,81.19
2018-09-10T03:06:18.178Z,81.09
2018-09-10T03:08:12.410Z,81.19
2018-09-10T03:09:12.328Z,81.38
2018-09-10T03:10:13.252Z,81.38
2018-09-10T03:11:13.344Z,81.19
2018-09-10T03:12:16.295Z,81.28
2018-09-10T03:13:13.270Z,81.28
2018-09-10T03:14:26.390Z,81.48
2018-09-10T03:15:11.709Z,81.19
2018-09-10T03:16:14.361Z,81.19
2018-09-10T03:17:18.306Z,81.28
2018-09-10T03:18:11.583Z,81.38
2018-09-10T03:19:11.498Z,81.28
2018-09-10T03:20:32.587Z,81.28
2018-09-10T03:21:13.192Z,80.99
2018-09-10T03:22:11.523Z,80.99
2018-09-10T03:23:11.473Z,80.99
2018-09-10T03:24:11.572Z,80.90
2018-09-10T03:25:22.897Z,80.80
2018-09-10T03:26:32.462Z,80.71
2018-09-10T03:27:16.253Z,80.61
2018-09-10T03:28:12.088Z,80.61
2018-09-10T03:29:11.498Z,80.90
2018-09-10T03:30:14.163Z,80.71
2018-09-10T03:31:11.375Z,80.80
2018-09-10T03:32:16.237Z,80.61
2018-09-10T03:33:11.349Z,80.90
2018-09-10T03:34:11.540Z,80.80
2018-09-10T03:36:12.313Z,80.99
2018-09-10T03:38:44.866Z,80.71
2018-09-10T03:39:44.938Z,80.61
2018-09-10T03:40:55.617Z,80.71
2018-09-10T03:41:46.231Z,80.80
2018-09-10T03:42:44.924Z,80.80
2018-09-10T03:43:45.018Z,80.61
2018-09-10T03:44:44.808Z,80.80
2018-09-10T03:45:44.913Z,80.90
2018-09-10T03:46:44.850Z,80.61
2018-09-10T03:47:52.464Z,80.90
2018-09-10T03:49:53.205Z,80.42
2018-09-10T03:50:53.696Z,80.22
2018-09-10T03:52:46.428Z,80.61
2018-09-10T03:53:48.074Z,80.51
2018-09-10T03:54:46.835Z,80.71
2018-09-10T03:55:45.176Z,80.90
2018-09-10T03:56:47.951Z,80.61
2018-09-10T03:57:45.285Z,80.99
2018-09-10T03:58:55.998Z,80.90
2018-09-10T04:00:06.252Z,80.71
2018-09-10T04:00:45.899Z,80.90
2018-09-10T04:01:45.768Z,80.57
2018-09-10T04:02:45.930Z,80.80
2018-09-10T04:03:45.172Z,80.61
2018-09-10T04:04:45.235Z,80.51
2018-09-10T04:07:06.226Z,80.61
2018-09-10T04:07:45.195Z,80.61
2018-09-10T04:09:20.975Z,80.71
2018-09-10T04:09:45.105Z,80.66
2018-09-10T04:10:45.832Z,80.90
2018-09-10T04:11:51.887Z,80.90
2018-09-10T04:12:45.074Z,80.51
2018-09-10T04:13:45.094Z,80.51
2018-09-10T04:15:20.997Z,80.32
2018-09-10T04:15:46.884Z,80.32
2018-09-10T04:16:45.034Z,80.42
2018-09-10T04:17:46.734Z,80.42
2018-09-10T04:18:45.122Z,80.13
2018-09-10T04:19:45.170Z,80.13
2018-09-10T04:20:49.643Z,80.13
2018-09-10T04:21:49.771Z,80.04
2018-09-10T04:22:49.665Z,79.98
2018-09-10T04:23:46.987Z,79.98
2018-09-10T04:24:48.013Z,80.22
2018-09-10T04:25:44.879Z,80.17
2018-09-10T04:27:01.928Z,79.94
2018-09-10T04:28:55.909Z,80.36
2018-09-10T04:29:55.035Z,79.88
2018-09-10T04:31:58.981Z,80.22
2018-09-10T04:35:11.108Z,79.55
2018-09-10T04:35:44.954Z,79.60
2018-09-10T04:36:42.829Z,79.79
2018-09-10T04:39:28.104Z,79.79
2018-09-10T04:40:27.620Z,79.69
2018-09-10T04:41:23.819Z,79.69
2018-09-10T04:42:37.715Z,79.69
2018-09-10T04:43:23.176Z,79.79
2018-09-10T04:44:22.981Z,79.79
2018-09-10T04:45:27.620Z,79.98
2018-09-10T04:46:23.168Z,79.40
2018-09-10T04:50:22.948Z,79.11
2018-09-10T04:51:23.113Z,79.11
2018-09-10T04:52:25.647Z,79.35
2018-09-10T04:53:29.592Z,79.15
2018-09-10T04:54:24.129Z,79.05
2018-09-10T04:57:37.346Z,78.38
2018-09-10T04:58:15.794Z,79.05
2018-09-10T05:00:11.779Z,78.96
2018-09-10T05:01:09.266Z,78.86
2018-09-10T05:04:34.216Z,78.96
2018-09-10T05:05:35.429Z,78.77
2018-09-10T05:07:33.171Z,78.67
2018-09-10T05:08:26.216Z,78.67
2018-09-10T05:09:24.438Z,78.86
2018-09-10T05:10:24.930Z,78.67
2018-09-10T05:11:24.420Z,79.15
2018-09-10T05:12:24.502Z,79.15
2018-09-10T05:13:24.485Z,78.58
2018-09-10T05:14:25.403Z,78.58
2018-09-10T05:15:24.259Z,78.67
2018-09-10T05:16:24.436Z,78.58
2018-09-10T05:17:24.351Z,78.28
2018-09-10T05:18:27.199Z,77.81
2018-09-10T05:19:27.793Z,78.09
2018-09-10T05:20:24.495Z,78.03
2018-09-10T05:21:24.528Z,77.94
2018-09-10T05:22:24.894Z,77.84
2018-09-10T05:23:24.460Z,77.84
2018-09-10T05:24:45.645Z,77.84
2018-09-10T05:25:24.434Z,77.84
2018-09-10T05:26:24.723Z,78.33
2018-09-10T05:28:24.576Z,77.94
2018-09-10T05:29:24.730Z,77.94
2018-09-10T05:30:24.790Z,77.56
2018-09-10T05:31:24.307Z,77.94
2018-09-10T05:32:26.840Z,77.31
2018-09-10T05:33:25.820Z,77.40
2018-09-10T05:34:25.909Z,77.59
2018-09-10T05:39:01.705Z,76.63
2018-09-10T05:39:51.216Z,76.15
2018-09-10T05:43:56.029Z,76.13
2018-09-10T05:44:49.428Z,75.45
2018-09-10T05:45:59.467Z,75.07
2018-09-10T05:46:38.432Z,74.82
2018-09-10T05:47:40.408Z,74.72
2018-09-10T05:48:40.381Z,74.43
2018-09-10T05:49:40.053Z,73.95
2018-09-10T05:52:39.337Z,73.11
2018-09-10T05:53:38.763Z,73.41
2018-09-10T05:54:38.822Z,73.21
2018-09-10T05:55:42.613Z,73.02
2018-09-10T05:56:41.769Z,73.69
2018-09-10T05:57:38.606Z,72.92
2018-09-10T06:01:38.455Z,74.08
2018-09-10T06:03:38.851Z,73.08
2018-09-10T06:04:38.385Z,73.37
2018-09-10T06:05:38.056Z,73.27
2018-09-10T06:06:38.450Z,73.57
2018-09-10T06:07:43.100Z,73.47
2018-09-10T06:08:39.141Z,73.66
2018-09-10T06:10:42.592Z,73.95
2018-09-10T06:11:39.408Z,73.95
2018-09-10T06:12:38.743Z,74.05
2018-09-10T06:15:05.511Z,73.85
2018-09-10T06:16:00.753Z,73.66
2018-09-10T06:20:59.313Z,74.43
2018-09-10T06:36:26.588Z,74.27
2018-09-10T06:39:15.408Z,74.66
2018-09-10T06:40:10.530Z,75.14
2018-09-10T06:43:04.403Z,74.79
2018-09-10T06:44:07.112Z,74.41
2018-09-10T06:50:38.243Z,74.64
2018-09-10T06:53:14.643Z,73.96
2018-09-10T06:55:08.535Z,73.61
2018-09-10T06:56:09.374Z,72.88
2018-09-10T06:57:07.549Z,72.72
2018-09-10T06:58:08.851Z,70.46
2018-09-10T06:59:07.440Z,71.08
2018-09-10T07:00:08.111Z,71.01
2018-09-10T07:02:08.004Z,70.08
2018-09-10T07:03:07.989Z,68.66
2018-09-10T07:04:10.203Z,68.76
2018-09-10T07:06:14.700Z,68.40
2018-09-10T07:07:12.769Z,67.85
2018-09-10T07:08:13.492Z,66.82
2018-09-10T07:09:25.580Z,64.69
2018-09-10T07:10:14.965Z,62.97
2018-09-10T07:11:11.396Z,62.90
2018-09-10T07:12:10.500Z,63.10
2018-09-10T07:13:12.134Z,60.21
2018-09-10T07:14:09.399Z,59.17
2018-09-10T07:15:09.382Z,58.94
2018-09-10T07:19:09.928Z,55.68
2018-09-10T07:20:08.008Z,56.46
2018-09-10T07:21:10.007Z,55.32
2018-09-10T07:22:08.124Z,54.73
2018-09-10T07:25:07.527Z,52.69
2018-09-10T07:28:07.515Z,51.37
2018-09-10T07:33:08.554Z,42.75
2018-09-10T07:34:09.922Z,41.98
2018-09-10T07:36:07.848Z,41.25
2018-09-10T07:39:08.432Z,44.24
2018-09-10T07:41:07.966Z,45.75
2018-09-10T07:46:07.413Z,49.71
2018-09-10T07:47:07.986Z,50.16
2018-09-10T07:48:07.428Z,51.41
2018-09-10T07:50:07.572Z,52.45
2018-09-10T07:53:10.053Z,50.60
2018-09-10T07:54:10.438Z,48.19
2018-09-10T07:55:09.925Z,47.28
2018-09-10T07:56:07.616Z,47.38
2018-09-10T07:57:08.397Z,47.27
2018-09-10T08:00:10.419Z,48.05
2018-09-10T08:02:10.050Z,46.68
2018-09-10T08:03:07.959Z,46.60
2018-09-10T08:05:10.595Z,44.89
2018-09-10T08:06:10.590Z,43.29
2018-09-10T08:11:10.576Z,36.33
2018-09-10T08:12:10.774Z,35.14
2018-09-10T08:13:13.131Z,33.31
2018-09-10T08:14:08.893Z,33.11
2018-09-10T08:15:08.413Z,34.08
2018-09-10T08:16:10.611Z,33.70
2018-09-10T08:21:10.426Z,29.34
2018-09-10T08:22:08.030Z,30.08
2018-09-10T08:23:10.058Z,31.02
2018-09-10T08:31:07.412Z,28.51
2018-09-10T08:37:08.948Z,32.41
2018-09-10T08:42:01.908Z,36.01
2018-09-10T08:44:01.994Z,36.94
2018-09-10T08:45:00.969Z,38.08
2018-09-10T08:46:01.463Z,38.51
2018-09-10T08:47:01.954Z,39.76
2018-09-10T08:48:05.988Z,40.53
2018-09-10T08:51:01.032Z,41.66
2018-09-10T08:52:02.036Z,41.93
2018-09-10T08:53:00.973Z,42.02
2018-09-10T08:54:01.699Z,42.22
2018-09-10T08:55:01.641Z,42.12
2018-09-10T08:56:03.240Z,42.32
2018-09-10T08:57:00.904Z,42.61
2018-09-10T08:59:01.414Z,41.09
2018-09-10T09:00:15.279Z,41.48
2018-09-10T09:01:00.939Z,41.77
2018-09-10T09:02:01.196Z,41.11
2018-09-10T09:03:01.604Z,39.14
2018-09-10T09:04:01.787Z,36.91
2018-09-10T09:05:33.427Z,34.06
2018-09-10T09:06:01.988Z,31.86
2018-09-10T09:07:06.004Z,31.93
2018-09-10T09:09:06.931Z,33.94
2018-09-10T09:10:11.973Z,33.91
2018-09-10T09:11:01.475Z,34.47
2018-09-10T09:12:02.081Z,34.30
2018-09-10T09:13:00.941Z,34.01
2018-09-10T09:14:22.548Z,32.39
2018-09-10T09:15:07.994Z,33.07
2018-09-10T09:19:01.499Z,33.92
2018-09-10T09:20:11.421Z,34.39
2018-09-10T09:22:04.479Z,35.24
2018-09-10T09:23:11.989Z,35.62
2018-09-10T09:25:01.986Z,36.76
2018-09-10T09:26:26.375Z,36.96
2018-09-10T09:27:01.017Z,36.58
2018-09-10T09:28:01.384Z,36.86
2018-09-10T09:29:00.807Z,37.73
2018-09-10T09:30:01.485Z,37.25
2018-09-10T09:31:01.148Z,37.82
2018-09-10T09:32:02.447Z,38.10
2018-09-10T09:33:00.803Z,39.14
2018-09-10T09:34:01.382Z,40.37
2018-09-10T09:35:02.317Z,40.58
2018-09-10T09:36:05.479Z,40.58
2018-09-10T09:38:02.313Z,39.27
2018-09-10T09:39:21.760Z,38.49
2018-09-10T09:40:00.905Z,39.47
2018-09-10T09:41:01.481Z,39.92
2018-09-10T09:42:01.300Z,40.78
2018-09-10T09:43:01.153Z,41.74
2018-09-10T09:44:01.495Z,41.91
2018-09-10T09:45:00.696Z,42.58
2018-09-10T09:48:00.708Z,44.66
2018-09-10T09:49:02.846Z,45.15
2018-09-10T09:50:02.225Z,45.34
2018-09-10T09:51:00.814Z,46.10
2018-09-10T09:52:01.938Z,46.56
2018-09-10T09:54:00.797Z,47.13
2018-09-10T09:55:02.810Z,47.49
2018-09-10T09:56:01.358Z,48.27
2018-09-10T09:58:00.714Z,49.02
2018-09-10T09:59:05.694Z,49.10
2018-09-10T10:00:00.664Z,49.85
2018-09-10T10:01:03.795Z,50.34
2018-09-10T10:02:00.760Z,51.38
2018-09-10T10:04:01.236Z,52.62
2018-09-10T10:05:00.857Z,52.81
2018-09-10T10:06:02.252Z,52.91
2018-09-10T10:07:01.425Z,53.59
2018-09-10T10:08:01.480Z,53.47
2018-09-10T10:10:07.643Z,53.20
2018-09-10T10:11:00.970Z,52.45
2018-09-10T10:13:28.071Z,50.56
2018-09-10T10:14:23.519Z,49.34
2018-09-10T10:15:22.916Z,49.15
2018-09-10T10:17:37.837Z,48.83
2018-09-10T10:18:27.397Z,48.83
2018-09-10T10:19:25.412Z,49.39
2018-09-10T10:20:23.440Z,49.49
2018-09-10T10:22:23.001Z,50.34
2018-09-10T10:23:27.859Z,50.14
2018-09-10T10:24:22.748Z,50.63
2018-09-10T10:26:23.370Z,51.18
2018-09-10T10:27:23.514Z,51.38
2018-09-10T10:28:23.455Z,51.97
2018-09-10T10:30:43.872Z,51.87
2018-09-10T10:31:22.733Z,52.45
2018-09-10T10:33:24.496Z,51.72
2018-09-10T10:35:23.138Z,49.92
2018-09-10T10:36:24.489Z,49.73
2018-09-10T10:37:24.848Z,49.80
2018-09-10T10:39:27.332Z,49.80
2018-09-10T10:40:24.404Z,50.09
2018-09-10T10:41:24.490Z,50.46
2018-09-10T10:43:23.140Z,50.75
2018-09-10T10:44:27.345Z,51.04
2018-09-10T10:45:22.707Z,50.85
2018-09-10T10:46:43.926Z,50.16
2018-09-10T10:47:24.400Z,50.19
2018-09-10T10:48:27.469Z,49.99
2018-09-10T10:50:23.290Z,48.95
2018-09-10T10:53:19.528Z,49.32
2018-09-10T10:54:18.976Z,49.32
2018-09-10T10:55:42.421Z,49.61
2018-09-10T10:56:19.334Z,49.87
2018-09-10T10:58:19.634Z,49.87
2018-09-10T10:59:25.785Z,49.78
2018-09-10T11:00:19.817Z,49.97
2018-09-10T11:01:18.923Z,50.07
2018-09-10T11:02:19.882Z,50.46
2018-09-10T11:03:19.883Z,50.85
2018-09-10T11:04:25.347Z,50.73
2018-09-10T11:05:23.359Z,50.92
2018-09-10T11:06:18.879Z,50.92
2018-09-10T11:07:19.336Z,51.21
2018-09-10T11:08:19.322Z,51.53
2018-09-10T11:09:20.314Z,50.85
2018-09-10T11:10:21.195Z,50.85
2018-09-10T11:14:12.056Z,49.95
2018-09-10T11:14:44.430Z,49.95
2018-09-10T11:15:40.091Z,49.17
2018-09-10T11:17:50.533Z,49.00
2018-09-10T11:19:01.564Z,48.51
2018-09-10T11:19:40.564Z,48.44
2018-09-10T11:20:41.015Z,48.14
2018-09-10T11:21:47.101Z,48.14
2018-09-10T11:22:42.124Z,48.24
2018-09-10T11:23:40.230Z,48.12
2018-09-10T11:24:54.532Z,48.12
2018-09-10T11:27:44.648Z,49.90
2018-09-10T11:28:41.085Z,50.36
2018-09-10T11:29:40.060Z,51.11
2018-09-10T11:30:40.599Z,51.40
2018-09-10T11:31:40.013Z,52.19
2018-09-10T11:32:40.511Z,52.09
2018-09-10T11:34:40.901Z,49.85
2018-09-10T11:35:40.614Z,46.83
2018-09-10T11:36:45.071Z,44.38
2018-09-10T11:37:42.018Z,43.52
2018-09-10T11:38:45.133Z,42.44
2018-09-10T11:39:45.104Z,42.95
2018-09-10T11:40:40.044Z,41.89
2018-09-10T11:41:40.448Z,42.02
2018-09-10T11:43:51.113Z,42.22
2018-09-10T11:44:42.104Z,43.57
2018-09-10T11:48:35.150Z,46.51
2018-09-10T11:51:07.679Z,48.12
2018-09-10T11:53:07.061Z,48.97
2018-09-10T11:54:03.049Z,49.29
2018-09-10T11:56:05.013Z,48.78
2018-09-10T11:56:56.009Z,49.00
2018-09-10T11:58:48.384Z,49.17
2018-09-10T11:59:46.691Z,49.17
2018-09-10T12:00:46.704Z,50.24
2018-09-10T12:01:48.336Z,49.85
2018-09-10T12:02:46.712Z,49.95
2018-09-10T12:03:46.622Z,50.60
2018-09-10T12:04:46.726Z,50.41
2018-09-10T12:05:46.616Z,50.51
2018-09-10T12:07:01.250Z,50.78
2018-09-10T12:07:47.135Z,51.45
2018-09-10T12:09:46.661Z,52.01
2018-09-10T12:10:46.648Z,52.76
2018-09-10T12:11:46.679Z,52.47
2018-09-10T12:12:46.744Z,52.96
2018-09-10T12:13:49.170Z,53.16
2018-09-10T12:14:47.175Z,51.99
2018-09-10T12:17:51.974Z,48.07
2018-09-10T12:18:42.872Z,47.61
2018-09-10T12:25:27.680Z,46.00
2018-09-10T12:26:22.934Z,45.65
2018-09-10T12:28:19.893Z,42.82
2018-09-10T12:29:15.962Z,42.18
2018-09-10T12:34:29.930Z,43.42
2018-09-10T12:35:26.929Z,44.84
2018-09-10T12:36:24.462Z,45.97
2018-09-10T12:37:26.834Z,46.41
2018-09-10T12:38:38.321Z,48.24
2018-09-10T12:39:24.331Z,48.80
2018-09-10T12:40:23.893Z,48.88
2018-09-10T12:41:24.403Z,49.76
2018-09-10T12:42:25.885Z,49.85
2018-09-10T12:43:24.006Z,50.31
2018-09-10T12:44:24.473Z,50.80
2018-09-10T12:45:23.790Z,50.99
2018-09-10T12:46:26.334Z,51.39
2018-09-10T12:47:23.758Z,51.48
2018-09-10T12:48:25.476Z,50.82
2018-09-10T12:51:24.824Z,49.90
2018-09-10T12:52:19.697Z,49.41
2018-09-10T12:54:25.989Z,48.39
2018-09-10T12:55:12.421Z,48.12
2018-09-10T12:57:26.839Z,47.53
2018-09-10T12:58:09.812Z,47.90
2018-09-10T12:59:19.812Z,48.68
2018-09-10T13:01:06.808Z,50.04
2018-09-10T13:02:05.862Z,51.48
2018-09-10T13:03:09.728Z,52.06
2018-09-10T13:04:05.423Z,52.33
2018-09-10T13:05:06.733Z,52.82
2018-09-10T13:07:07.850Z,52.26
2018-09-10T13:08:06.091Z,51.51
2018-09-10T13:09:07.768Z,50.38
2018-09-10T13:10:51.721Z,48.63
2018-09-10T13:13:54.247Z,48.10
2018-09-10T13:14:51.706Z,48.49
2018-09-10T13:18:30.837Z,51.02
2018-09-10T13:19:29.145Z,50.90
2018-09-10T13:20:29.256Z,51.70
2018-09-10T13:21:50.231Z,50.92
2018-09-10T13:22:58.185Z,50.73
2018-09-10T13:23:44.145Z,50.16
2018-09-10T13:24:30.155Z,49.99
2018-09-10T13:25:29.208Z,49.05
2018-09-10T13:26:29.149Z,48.71
2018-09-10T13:27:29.191Z,46.80
2018-09-10T13:28:50.228Z,45.97
2018-09-10T13:33:36.795Z,34.88
2018-09-10T13:35:37.115Z,35.58
2018-09-10T13:41:42.595Z,41.60
2018-09-10T13:43:19.484Z,42.61
2018-09-10T13:44:19.582Z,43.20
2018-09-10T13:46:55.120Z,42.19
2018-09-10T13:47:45.140Z,43.03
2018-09-10T13:52:28.763Z,46.70
2018-09-10T13:54:18.230Z,47.63
2018-09-10T13:55:18.019Z,48.10
2018-09-10T13:56:18.569Z,49.27
2018-09-10T13:57:18.112Z,48.88
2018-09-10T13:58:19.638Z,48.54
2018-09-10T13:59:39.030Z,48.51
2018-09-10T14:00:17.960Z,48.97
2018-09-10T14:01:18.039Z,49.83
2018-09-10T14:02:18.327Z,50.48
2018-09-10T14:03:18.059Z,51.14
2018-09-10T14:04:19.723Z,52.37
2018-09-10T14:05:19.603Z,52.25
2018-09-10T14:06:17.997Z,53.22
2018-09-10T14:07:17.957Z,53.52
2018-09-10T14:08:19.707Z,53.97
2018-09-10T14:09:17.873Z,54.82
2018-09-10T14:10:17.879Z,54.82
2018-09-10T14:11:17.903Z,55.96
2018-09-10T14:12:17.851Z,56.35
2018-09-10T14:13:17.900Z,56.64
2018-09-10T14:14:17.824Z,56.90
2018-09-10T14:16:17.781Z,56.90
2018-09-10T14:17:19.378Z,56.90
2018-09-10T14:18:19.519Z,56.83
2018-09-10T14:19:17.801Z,56.18
2018-09-10T14:20:18.571Z,55.29
2018-09-10T14:21:22.422Z,54.52
2018-09-10T14:22:17.904Z,53.86
2018-09-10T14:23:17.855Z,54.15
2018-09-10T14:24:17.855Z,53.11
2018-09-10T14:25:17.899Z,52.48
2018-09-10T14:26:18.579Z,51.73
2018-09-10T14:27:17.887Z,50.48
2018-09-10T14:28:17.910Z,50.48
2018-09-10T14:29:22.487Z,50.48
2018-09-10T14:30:17.828Z,50.36
2018-09-10T14:31:19.596Z,50.95
2018-09-10T14:32:17.988Z,51.80
2018-09-10T14:33:19.429Z,51.97
2018-09-10T14:34:17.824Z,52.36
2018-09-10T14:35:17.859Z,52.62
2018-09-10T14:36:17.641Z,51.82
2018-09-10T14:37:17.904Z,50.41
2018-09-10T14:38:17.930Z,49.54
2018-09-10T14:39:20.664Z,49.63
2018-09-10T14:40:18.676Z,49.66
2018-09-10T14:41:17.935Z,49.12
2018-09-10T14:42:19.583Z,48.46
2018-09-10T14:43:17.998Z,47.70
2018-09-10T14:44:39.699Z,46.37
2018-09-10T14:46:19.713Z,43.70
2018-09-10T14:47:18.346Z,42.27
2018-09-10T14:48:17.980Z,41.90
2018-09-10T14:51:17.787Z,40.63
2018-09-10T14:52:38.923Z,41.56
2018-09-10T14:53:28.713Z,42.23
2018-09-10T14:55:19.702Z,42.90
2018-09-10T14:57:19.645Z,43.37
2018-09-10T14:58:17.941Z,42.97
2018-09-10T14:59:17.926Z,42.60
2018-09-10T15:02:25.298Z,40.35
2018-09-10T15:03:18.730Z,39.90
2018-09-10T15:05:20.719Z,38.18
2018-09-10T15:06:19.750Z,37.41
2018-09-10T15:11:18.488Z,39.33
2018-09-10T15:12:17.821Z,39.90
2018-09-10T15:13:20.762Z,39.90
2018-09-10T15:14:17.945Z,40.29
2018-09-10T15:15:17.833Z,40.84
2018-09-10T15:17:18.425Z,42.05
2018-09-10T15:18:18.695Z,42.50
2018-09-10T15:19:17.808Z,43.46
2018-09-10T15:20:17.759Z,44.78
2018-09-10T15:21:19.631Z,45.36
2018-09-10T15:22:18.665Z,46.39
2018-09-10T15:23:17.710Z,46.49
2018-09-10T15:24:17.799Z,47.32
2018-09-10T15:26:17.762Z,48.36
2018-09-10T15:27:17.779Z,48.46
2018-09-10T15:28:17.717Z,49.41
2018-09-10T15:29:17.759Z,49.12
2018-09-10T15:30:22.634Z,49.29
2018-09-10T15:31:17.700Z,50.26
2018-09-10T15:32:17.784Z,50.82
2018-09-10T15:33:17.750Z,52.35
2018-09-10T15:34:17.511Z,52.91
2018-09-10T15:37:33.893Z,54.72
2018-09-10T15:39:20.243Z,54.80
2018-09-10T15:40:20.397Z,55.57
2018-09-10T15:42:17.420Z,55.57
2018-09-10T15:43:15.492Z,55.57
2018-09-10T15:45:15.483Z,56.83
2018-09-10T15:46:14.013Z,56.81
2018-09-10T15:47:13.809Z,57.78
2018-09-10T15:48:14.089Z,57.58
2018-09-10T15:49:14.050Z,57.78
2018-09-10T15:50:14.098Z,58.36
2018-09-10T15:51:14.535Z,58.26
2018-09-10T15:52:13.915Z,58.23
2018-09-10T15:53:13.757Z,58.81
2018-09-10T15:54:13.983Z,58.72
2018-09-10T15:55:14.604Z,59.07
2018-09-10T15:56:15.503Z,59.36
2018-09-10T15:57:13.930Z,59.94
2018-09-10T15:58:13.993Z,60.43
2018-09-10T15:59:13.881Z,60.69
2018-09-10T16:00:13.852Z,61.76
2018-09-10T16:01:15.617Z,62.59
2018-09-10T16:02:24.492Z,62.88
2018-09-10T16:03:15.594Z,64.01
2018-09-10T16:04:13.677Z,63.92
2018-09-10T16:05:13.882Z,63.92
2018-09-10T16:06:13.855Z,64.37
2018-09-10T16:07:13.782Z,64.18
2018-09-10T16:08:13.811Z,65.24
2018-09-10T16:09:14.540Z,66.01
2018-09-10T16:10:13.743Z,66.01
2018-09-10T16:11:14.407Z,66.08
2018-09-10T16:12:13.892Z,65.98
2018-09-10T16:13:13.825Z,65.88
2018-09-10T16:14:35.639Z,66.66
2018-09-10T16:15:15.550Z,66.66
2018-09-10T16:16:13.866Z,66.91
2018-09-10T16:17:14.639Z,67.11
2018-09-10T16:18:13.506Z,67.69
2018-09-10T16:19:15.487Z,67.97
2018-09-10T16:20:13.556Z,68.07
2018-09-10T16:22:13.685Z,68.65
2018-09-10T16:23:13.627Z,68.46
2018-09-10T16:24:15.538Z,69.04
2018-09-10T16:25:16.380Z,69.04
2018-09-10T16:26:15.427Z,69.20
2018-09-10T16:28:40.348Z,69.58
2018-09-10T16:29:40.237Z,70.06
2018-09-10T16:30:40.121Z,69.97
2018-09-10T16:31:46.677Z,70.16
2018-09-10T16:32:40.134Z,70.16
2018-09-10T16:33:40.796Z,69.97
2018-09-10T16:34:41.778Z,70.94
2018-09-10T16:35:40.258Z,70.74
2018-09-10T16:36:40.234Z,71.03
2018-09-10T16:37:40.086Z,71.03
2018-09-10T16:38:40.166Z,71.38
2018-09-10T16:39:40.740Z,71.28
2018-09-10T16:40:40.596Z,71.48
2018-09-10T16:41:40.196Z,72.34
2018-09-10T16:42:42.607Z,71.96
2018-09-10T16:43:40.795Z,72.92
2018-09-10T16:44:42.970Z,73.41
2018-09-10T16:46:57.877Z,74.24
2018-09-10T16:48:36.039Z,74.14
2018-09-10T16:49:33.448Z,74.05
2018-09-10T16:50:33.388Z,74.33
2018-09-10T16:52:17.016Z,74.62
2018-09-10T16:52:33.299Z,74.97
2018-09-10T16:53:33.428Z,75.45
2018-09-10T16:56:57.012Z,75.45
2018-09-10T16:57:56.106Z,75.74
2018-09-10T16:58:54.094Z,76.13
2018-09-10T16:59:54.107Z,76.03
2018-09-10T17:00:56.925Z,75.74
2018-09-10T17:01:54.230Z,75.55
2018-09-10T17:02:54.129Z,76.32
2018-09-10T17:04:47.873Z,77.25
2018-09-10T17:05:48.964Z,77.09